Time;durP1;ratioP1;P1;durP2;ratioP2;P2;SDS_P1;SDS_P2;PMS_P1;PMS_P2;Temp;Humidity;BMP_temperature;BMP_pressure;BME280_temperature;BME280_humidity;BME280_pressure;Samples;Min_cycle;Max_cycle;Signal;HPM_P1;HPM_P2
2022/04/28 00:02:11;;;;;;;7.57;4.50;;;;;;;13.70;nan;-24199.53;5012387;28;20222;-71
2022/04/28 00:04:37;;;;;;;5.55;4.13;;;;;;;14.01;nan;-24207.97;5012227;28;20176;-71
2022/04/28 00:07:03;;;;;;;7.10;4.25;;;;;;;13.93;nan;-24205.84;5010979;28;20214;-71
2022/04/28 00:09:29;;;;;;;6.57;4.28;;;;;;;14.03;nan;-24208.66;5012488;28;20187;-71
2022/04/28 00:11:54;;;;;;;8.55;4.18;;;;;;;13.89;nan;-24204.59;5012513;28;20172;-71
2022/04/28 00:14:20;;;;;;;5.55;3.75;;;;;;;13.54;nan;-24194.91;5012079;28;20172;-71
2022/04/28 00:16:46;;;;;;;5.43;3.67;;;;;;;13.96;nan;-24206.69;5011460;28;20176;-71
2022/04/28 00:19:11;;;;;;;5.78;3.75;;;;;;;13.92;nan;-24205.56;5012011;28;20576;-71
2022/04/28 00:21:37;;;;;;;7.30;3.55;;;;;;;13.62;nan;-24197.16;5012055;28;20553;-71
2022/04/28 00:24:02;;;;;;;5.45;3.63;;;;;;;13.79;nan;-24201.78;5012072;28;20182;-71
2022/04/28 00:26:28;;;;;;;7.03;3.83;;;;;;;13.43;nan;-24191.81;5012069;28;20651;-71
2022/04/28 00:28:53;;;;;;;5.60;3.47;;;;;;;13.70;nan;-24199.41;5012107;28;20207;-71
2022/04/28 00:31:23;;;;;;;3.78;3.28;;;;;;;13.68;nan;-24198.97;5012120;28;20168;-71
2022/04/28 00:33:49;;;;;;;4.13;3.40;;;;;;;13.70;nan;-24199.53;5011982;28;20176;-71
2022/04/28 00:36:15;;;;;;;4.90;3.50;;;;;;;13.73;nan;-24200.25;5011614;28;20176;-72
2022/04/28 00:38:40;;;;;;;7.47;3.35;;;;;;;13.15;nan;-24184.09;5011973;28;20536;-71
2022/04/28 00:41:06;;;;;;;5.88;3.83;;;;;;;13.12;nan;-24183.25;5011890;28;20623;-73
2022/04/28 00:43:46;;;;;;;4.80;3.42;;;;;;;13.34;nan;-24189.44;5011992;28;20172;-72
2022/04/28 00:46:12;;;;;;;6.35;3.47;;;;;;;13.53;nan;-24194.63;5011948;28;20650;-71
2022/04/28 00:51:21;;;;;;;5.45;3.35;;;;;;;13.15;nan;-24184.22;5011889;28;20611;-71
2022/04/28 00:53:51;;;;;;;4.80;3.33;;;;;;;13.50;nan;-24193.78;5011781;28;20224;-71
2022/04/28 00:56:16;;;;;;;6.28;4.53;;;;;;;13.56;nan;-24195.59;5011816;28;20179;-71
2022/04/28 00:58:42;;;;;;;4.97;3.35;;;;;;;13.16;nan;-24184.50;5011727;28;20176;-71
2022/04/28 01:01:08;;;;;;;4.40;3.40;;;;;;;13.12;nan;-24183.38;5011537;28;20238;-71
2022/04/28 01:03:34;;;;;;;5.32;3.65;;;;;;;13.17;nan;-24184.66;5011306;28;20196;-71
2022/04/28 01:06:00;;;;;;;6.50;3.67;;;;;;;13.50;nan;-24193.91;5011680;28;20623;-71
2022/04/28 01:08:26;;;;;;;7.43;3.85;;;;;;;13.19;nan;-24185.22;5011414;28;20180;-71
2022/04/28 01:10:53;;;;;;;5.13;3.80;;;;;;;13.37;nan;-24190.25;5011729;28;20628;-71
2022/04/28 01:13:19;;;;;;;5.43;3.75;;;;;;;13.16;nan;-24184.38;5011514;28;20184;-71
2022/04/28 01:15:46;;;;;;;4.88;3.72;;;;;;;13.12;nan;-24183.38;5011573;28;20318;-71
2022/04/28 01:18:12;;;;;;;5.60;3.28;;;;;;;13.03;nan;-24180.84;5011562;28;20176;-71
2022/04/28 01:20:37;;;;;;;4.45;3.42;;;;;;;13.27;nan;-24187.59;5011848;28;20226;-71
2022/04/28 01:23:06;;;;;;;4.28;3.47;;;;;;;13.38;nan;-24190.56;5011613;28;20551;-71
2022/04/28 01:25:32;;;;;;;4.05;3.60;;;;;;;13.37;nan;-24190.25;5011491;28;20200;-71
2022/04/28 01:27:58;;;;;;;4.63;3.40;;;;;;;12.99;nan;-24179.72;5011627;28;20644;-71
2022/04/28 01:30:23;;;;;;;6.63;3.83;;;;;;;13.35;nan;-24189.56;5014678;28;20179;-71
2022/04/28 01:32:49;;;;;;;7.65;4.65;;;;;;;13.34;nan;-24189.28;5014461;28;20648;-71
2022/04/28 01:35:14;;;;;;;6.38;4.05;;;;;;;12.91;nan;-24177.47;5014403;28;20179;-71
2022/04/28 01:37:40;;;;;;;6.90;4.13;;;;;;;12.81;nan;-24174.66;5014382;28;20526;-71
2022/04/28 01:40:11;;;;;;;5.35;3.75;;;;;;;12.87;nan;-24176.34;5013241;28;20182;-71
2022/04/28 01:42:45;;;;;;;5.28;3.97;;;;;;;13.24;nan;-24186.63;5013160;28;20263;-71
2022/04/28 01:45:11;;;;;;;5.20;3.80;;;;;;;12.76;nan;-24173.25;5013166;28;20226;-71
2022/04/28 01:47:37;;;;;;;7.57;4.80;;;;;;;12.90;nan;-24177.19;5013610;28;20186;-71
2022/04/28 01:50:04;;;;;;;8.57;4.75;;;;;;;12.44;nan;-24164.41;5013319;28;20614;-70
2022/04/28 01:55:14;;;;;;;7.82;4.78;;;;;;;12.65;nan;-24170.31;5013425;28;20729;-70
2022/04/28 01:57:39;;;;;;;9.73;4.38;;;;;;;12.37;nan;-24162.44;5013808;28;20251;-70
2022/04/28 02:00:06;;;;;;;7.47;4.60;;;;;;;12.67;nan;-24170.72;5013025;28;20180;-71
2022/04/28 02:02:33;;;;;;;8.55;4.32;;;;;;;12.26;nan;-24159.34;5014090;28;20667;-70
2022/04/28 02:04:59;;;;;;;8.73;4.53;;;;;;;12.19;nan;-24157.50;5014074;28;20230;-70
2022/04/28 02:07:25;;;;;;;7.05;4.90;;;;;;;12.05;nan;-24153.56;5014160;28;20250;-70
2022/04/28 02:09:50;;;;;;;7.55;5.22;;;;;;;12.42;nan;-24163.69;5014489;28;20553;-71
2022/04/28 02:12:16;;;;;;;9.93;4.97;;;;;;;12.22;nan;-24158.34;5013813;28;20222;-72
2022/04/28 02:14:41;;;;;;;7.82;5.00;;;;;;;12.52;nan;-24166.50;5014463;28;20204;-72
2022/04/28 02:17:07;;;;;;;7.00;4.80;;;;;;;12.31;nan;-24160.75;5014344;28;20176;-71
2022/04/28 02:19:32;;;;;;;8.43;5.15;;;;;;;12.26;nan;-24159.34;5014353;28;20175;-72
2022/04/28 02:21:58;;;;;;;9.15;5.20;;;;;;;12.00;nan;-24152.16;5014266;28;20168;-72
2022/04/28 02:24:24;;;;;;;7.97;5.70;;;;;;;12.09;nan;-24154.53;5014650;28;20174;-72
2022/04/28 02:26:49;;;;;;;7.40;5.10;;;;;;;11.86;nan;-24148.34;5013746;28;20199;-71
2022/04/28 02:29:15;;;;;;;9.35;5.07;;;;;;;11.93;nan;-24150.31;5014754;28;20352;-72
2022/04/28 02:31:41;;;;;;;8.93;5.35;;;;;;;11.94;nan;-24150.47;5014003;28;20172;-71
2022/04/28 02:34:06;;;;;;;7.93;5.43;;;;;;;12.19;nan;-24157.38;5014215;28;20172;-71
2022/04/28 02:36:32;;;;;;;10.82;5.50;;;;;;;12.03;nan;-24153.00;5014002;28;20207;-71
2022/04/28 02:38:58;;;;;;;8.95;5.28;;;;;;;11.97;nan;-24151.31;5013048;28;20169;-72
2022/04/28 02:41:23;;;;;;;8.15;5.20;;;;;;;12.14;nan;-24156.09;5013172;28;20172;-72
2022/04/28 02:43:49;;;;;;;8.40;5.20;;;;;;;12.24;nan;-24158.91;5013732;28;20205;-72
2022/04/28 02:46:15;;;;;;;10.32;5.50;;;;;;;12.29;nan;-24160.31;5013579;28;20212;-72
2022/04/28 02:48:40;;;;;;;7.03;4.95;;;;;;;12.06;nan;-24153.84;5029142;28;20176;-71
2022/04/28 02:51:06;;;;;;;10.20;5.35;;;;;;;12.07;nan;-24154.13;5013755;28;20180;-71
2022/04/28 02:53:32;;;;;;;12.00;5.47;;;;;;;12.24;nan;-24158.78;5013339;28;20683;-72
2022/04/28 02:55:57;;;;;;;7.53;4.88;;;;;;;12.40;nan;-24163.28;5013343;28;20187;-72
2022/04/28 02:58:22;;;;;;;10.65;5.13;;;;;;;12.52;nan;-24166.50;5013362;28;20176;-72
2022/04/28 03:00:48;;;;;;;8.68;4.95;;;;;;;12.57;nan;-24167.91;5013487;28;20168;-71
2022/04/28 03:03:13;;;;;;;6.47;4.70;;;;;;;12.25;nan;-24159.19;5013891;28;20176;-71
2022/04/28 03:11:07;;;;;;;8.38;5.10;;;;;;;12.25;nan;-24159.19;5013339;28;20175;-72
2022/04/28 03:13:32;;;;;;;12.48;5.78;;;;;;;12.69;nan;-24171.28;5013264;28;20556;-71
2022/04/28 03:15:59;;;;;;;11.75;5.90;;;;;;;12.36;nan;-24162.16;5013218;28;20179;-71
2022/04/28 03:18:25;;;;;;;8.95;5.47;;;;;;;12.34;nan;-24161.72;5012854;28;20545;-71
2022/04/28 03:20:50;;;;;;;10.52;5.70;;;;;;;12.64;nan;-24169.88;5012911;28;20183;-72
2022/04/28 03:23:16;;;;;;;9.27;5.72;;;;;;;12.73;nan;-24172.41;5006396;28;20695;-72
2022/04/28 03:25:41;;;;;;;12.57;6.65;;;;;;;12.34;nan;-24161.59;5006530;28;20196;-71
2022/04/28 03:28:08;;;;;;;8.93;5.80;;;;;;;12.64;nan;-24170.03;5005196;28;20678;-71
2022/04/28 03:30:34;;;;;;;9.25;6.22;;;;;;;12.60;nan;-24168.75;5006103;28;20180;-71
2022/04/28 03:33:00;;;;;;;9.40;6.28;;;;;;;12.38;nan;-24162.84;5021773;28;20180;-72
2022/04/28 03:35:26;;;;;;;9.82;5.75;;;;;;;12.45;nan;-24164.53;5006770;28;20222;-71
2022/04/28 03:37:52;;;;;;;8.15;6.22;;;;;;;12.76;nan;-24173.25;5004535;28;20188;-71
2022/04/28 03:40:17;;;;;;;11.65;6.05;;;;;;;12.33;nan;-24161.31;5006523;28;20262;-71
2022/04/28 03:42:44;;;;;;;9.88;5.78;;;;;;;12.72;nan;-24172.13;5007215;28;20640;-71
2022/04/28 03:45:10;;;;;;;12.00;6.47;;;;;;;12.90;nan;-24177.19;5005807;28;20184;-72
2022/04/28 03:47:36;;;;;;;9.63;6.05;;;;;;;12.52;nan;-24166.50;5009316;28;20295;-71
2022/04/28 03:50:06;;;;;;;13.50;6.43;;;;;;;12.76;nan;-24173.41;5011876;28;20267;-71
2022/04/28 03:52:32;;;;;;;9.60;5.97;;;;;;;12.92;nan;-24177.75;5010782;28;20215;-70
2022/04/28 03:54:57;;;;;;;13.85;5.40;;;;;;;12.92;nan;-24177.75;5011270;28;20255;-71
2022/04/28 03:57:22;;;;;;;10.18;5.18;;;;;;;12.91;nan;-24177.47;5012237;28;20180;-71
2022/04/28 03:59:48;;;;;;;8.75;5.97;;;;;;;12.50;nan;-24165.94;5011327;28;20191;-71
2022/04/28 04:02:14;;;;;;;10.18;5.63;;;;;;;12.94;nan;-24178.19;5011390;28;20176;-71
2022/04/28 04:04:39;;;;;;;9.38;6.03;;;;;;;12.95;nan;-24178.47;5011100;28;20330;-71
2022/04/28 04:07:06;;;;;;;8.85;6.50;;;;;;;13.01;nan;-24180.16;4996645;28;20657;-71
2022/04/28 04:09:32;;;;;;;12.20;6.40;;;;;;;12.65;nan;-24170.16;5010797;28;20261;-70
2022/04/28 04:11:57;;;;;;;10.70;6.20;;;;;;;13.19;nan;-24185.34;5009718;28;20683;-71
2022/04/28 04:14:23;;;;;;;8.65;6.32;;;;;;;13.37;nan;-24190.25;5008394;28;20241;-71
2022/04/28 04:16:48;;;;;;;10.98;7.25;;;;;;;13.18;nan;-24184.94;5008201;28;20556;-71
2022/04/28 04:19:14;;;;;;;11.35;6.80;;;;;;;13.32;nan;-24188.72;5011708;28;20644;-69
2022/04/28 04:21:39;;;;;;;12.25;7.05;;;;;;;13.30;nan;-24188.16;5006930;28;20176;-68
2022/04/28 04:24:06;;;;;;;11.60;6.88;;;;;;;13.87;nan;-24204.16;5002534;28;20180;-68
2022/04/28 04:26:31;;;;;;;12.55;6.80;;;;;;;13.58;nan;-24196.16;5011442;28;20203;-67
2022/04/28 04:28:57;;;;;;;11.18;7.38;;;;;;;13.46;nan;-24192.66;5011537;28;20171;-68
2022/04/28 04:34:06;;;;;;;12.57;6.75;;;;;;;15.19;nan;-24240.63;5011353;28;20182;-67
2022/04/28 04:36:32;;;;;;;12.90;6.53;;;;;;;15.45;nan;-24247.91;5011487;28;20175;-67
2022/04/28 04:38:57;;;;;;;13.30;7.43;;;;;;;15.80;nan;-24257.56;5011689;28;20180;-67
2022/04/28 04:41:23;;;;;;;9.88;6.72;;;;;;;15.53;nan;-24250.03;5011558;28;20254;-68
2022/04/28 04:43:48;;;;;;;11.00;7.07;;;;;;;15.64;nan;-24253.22;5011516;28;20629;-67
2022/04/28 04:46:13;;;;;;;11.02;6.88;;;;;;;16.47;nan;-24276.03;5011476;28;20279;-68
2022/04/28 04:48:39;;;;;;;8.70;6.38;;;;;;;16.43;nan;-24274.91;5011385;28;20188;-67
2022/04/28 04:51:04;;;;;;;10.77;6.85;;;;;;;17.16;nan;-24295.16;5011503;28;20584;-68
2022/04/28 04:53:30;;;;;;;11.30;7.30;;;;;;;17.62;nan;-24308.00;5011350;28;20311;-67
2022/04/28 04:55:55;;;;;;;11.75;7.22;;;;;;;17.58;nan;-24306.91;5011364;28;20672;-68
2022/04/28 04:58:21;;;;;;;10.15;6.60;;;;;;;17.97;nan;-24317.50;5011359;28;20190;-68
2022/04/28 05:00:46;;;;;;;11.65;6.85;;;;;;;17.83;nan;-24313.59;5010523;28;20180;-68
2022/04/28 05:03:13;;;;;;;11.45;6.28;;;;;;;17.27;nan;-24298.25;5012374;28;20207;-68
2022/04/28 05:05:38;;;;;;;13.38;6.97;;;;;;;16.99;nan;-24290.56;5014604;28;20585;-68
2022/04/28 05:08:04;;;;;;;14.25;6.93;;;;;;;16.84;nan;-24286.22;5014565;28;20172;-68
2022/04/28 05:10:30;;;;;;;10.45;6.60;;;;;;;16.56;nan;-24278.69;5014628;28;20205;-68
2022/04/28 05:12:56;;;;;;;11.40;7.95;;;;;;;16.81;nan;-24285.41;5014445;28;20168;-69
2022/04/28 05:15:22;;;;;;;13.82;7.90;;;;;;;16.53;nan;-24277.72;5014322;28;20176;-67
2022/04/28 05:17:47;;;;;;;9.10;6.30;;;;;;;16.25;nan;-24270.03;5014384;28;20176;-70
2022/04/28 05:20:13;;;;;;;10.98;7.03;;;;;;;16.30;nan;-24271.56;5014636;28;20642;-68
2022/04/28 05:22:39;;;;;;;11.82;6.75;;;;;;;16.70;nan;-24282.47;5014562;28;20218;-69
2022/04/28 05:25:04;;;;;;;15.73;6.97;;;;;;;16.93;nan;-24288.88;5015002;28;20172;-68
2022/04/28 05:27:30;;;;;;;12.40;6.85;;;;;;;16.93;nan;-24288.75;5013136;28;20777;-68
2022/04/28 05:29:56;;;;;;;10.60;6.70;;;;;;;17.05;nan;-24292.09;5014537;28;20199;-70
2022/04/28 05:32:21;;;;;;;12.18;6.93;;;;;;;17.28;nan;-24298.53;5014720;28;20182;-69
2022/04/28 05:34:47;;;;;;;12.40;6.68;;;;;;;17.65;nan;-24308.84;5014235;28;20168;-69
2022/04/28 05:37:12;;;;;;;10.45;6.18;;;;;;;17.77;nan;-24312.06;5014672;28;20169;-69
2022/04/28 05:39:40;;;;;;;10.25;6.93;;;;;;;17.76;nan;-24311.78;5014565;28;20230;-68
2022/04/28 05:42:07;;;;;;;8.45;5.90;;;;;;;17.81;nan;-24313.03;5014375;28;20192;-69
2022/04/28 05:47:18;;;;;;;12.82;5.30;;;;;;;18.54;nan;-24333.38;5013828;28;20737;-68
2022/04/28 05:49:44;;;;;;;5.78;4.28;;;;;;;18.22;nan;-24324.47;5013036;28;20176;-68
2022/04/28 05:52:09;;;;;;;7.63;4.45;;;;;;;18.52;nan;-24332.69;5013899;28;20184;-67
2022/04/28 05:54:36;;;;;;;6.47;4.25;;;;;;;18.93;nan;-24343.97;5014256;28;20286;-68
2022/04/28 05:57:02;;;;;;;5.55;3.95;;;;;;;18.39;nan;-24329.22;5014219;28;20184;-68
2022/04/28 05:59:27;;;;;;;8.75;4.05;;;;;;;18.80;nan;-24340.34;5014425;28;20176;-69
2022/04/28 06:01:53;;;;;;;6.40;4.32;;;;;;;18.75;nan;-24338.97;5013968;28;20179;-69
2022/04/28 06:04:18;;;;;;;7.00;4.10;;;;;;;18.68;nan;-24337.00;5013931;28;20176;-60
2022/04/28 06:06:44;;;;;;;5.30;3.70;;;;;;;18.85;nan;-24341.75;5013845;28;20184;-60
2022/04/28 06:09:09;;;;;;;9.10;4.28;;;;;;;19.24;nan;-24352.59;5013964;28;20558;-59
2022/04/28 06:11:35;;;;;;;8.90;3.70;;;;;;;19.40;nan;-24357.06;5013693;28;20251;-61
2022/04/28 06:14:00;;;;;;;9.25;3.95;;;;;;;19.66;nan;-24364.00;5012766;28;20176;-61
2022/04/28 06:16:26;;;;;;;5.97;4.18;;;;;;;19.43;nan;-24357.75;5013719;28;20172;-61
2022/04/28 06:18:51;;;;;;;5.82;3.55;;;;;;;19.57;nan;-24361.50;5014104;28;20200;-61
2022/04/28 06:21:17;;;;;;;9.77;3.63;;;;;;;19.81;nan;-24368.19;5014061;28;20165;-61
2022/04/28 06:23:44;;;;;;;4.45;3.03;;;;;;;20.03;nan;-24374.16;5013696;28;20176;-61
2022/04/28 06:26:10;;;;;;;5.38;3.10;;;;;;;19.86;nan;-24369.56;5013438;28;20690;-60
2022/04/28 06:28:35;;;;;;;6.45;3.40;;;;;;;19.64;nan;-24363.44;5012124;28;20215;-61
2022/04/28 06:31:29;;;;;;;3.63;2.95;;;;;;;19.58;nan;-24361.78;5012933;28;20190;-60
2022/04/28 06:33:54;;;;;;;3.78;2.80;;;;;;;19.89;nan;-24370.41;5011535;28;20176;-60
2022/04/28 06:36:19;;;;;;;6.35;3.20;;;;;;;19.89;nan;-24370.25;5011643;28;20182;-61
2022/04/28 06:38:46;;;;;;;6.63;3.42;;;;;;;19.98;nan;-24372.91;5011792;28;20168;-61
2022/04/28 06:41:11;;;;;;;5.20;3.20;;;;;;;19.82;nan;-24368.59;5011409;28;20229;-60
2022/04/28 06:43:37;;;;;;;4.82;3.13;;;;;;;19.87;nan;-24369.84;5011258;28;20176;-61
2022/04/28 06:46:12;;;;;;;8.10;3.00;;;;;;;20.05;nan;-24374.84;5011559;28;20282;-61
2022/04/28 06:48:37;;;;;;;5.80;2.85;;;;;;;20.14;nan;-24377.34;5013086;28;20167;-61
2022/04/28 06:51:02;;;;;;;4.63;3.00;;;;;;;20.12;nan;-24376.66;5014033;28;20631;-61
2022/04/28 06:53:28;;;;;;;3.88;2.80;;;;;;;20.48;nan;-24386.66;5012987;28;20226;-61
2022/04/28 06:55:53;;;;;;;6.45;2.92;;;;;;;20.24;nan;-24380.13;5013032;28;20602;-60
2022/04/28 06:58:21;;;;;;;5.60;2.70;;;;;;;20.71;nan;-24392.91;5013485;28;20183;-60
2022/04/28 07:00:48;;;;;;;5.43;2.67;;;;;;;20.73;nan;-24393.59;5013258;28;20183;-60
2022/04/28 07:03:13;;;;;;;7.13;2.83;;;;;;;20.72;nan;-24393.19;5012916;28;20176;-60
2022/04/28 07:05:39;;;;;;;4.95;2.83;;;;;;;20.69;nan;-24392.47;5012721;28;20250;-60
2022/04/28 07:08:05;;;;;;;4.88;2.97;;;;;;;21.12;nan;-24404.28;5012585;28;20608;-60
2022/04/28 07:10:30;;;;;;;8.77;3.00;;;;;;;20.61;nan;-24390.13;5013353;28;20647;-61
2022/04/28 07:12:55;;;;;;;5.82;3.20;;;;;;;20.82;nan;-24395.94;5013084;28;20184;-60
2022/04/28 07:15:21;;;;;;;5.55;2.95;;;;;;;21.05;nan;-24402.19;5013296;28;20259;-61
2022/04/28 07:17:46;;;;;;;6.80;3.50;;;;;;;21.27;nan;-24408.28;5013027;28;20176;-60
2022/04/28 07:20:12;;;;;;;5.60;3.33;;;;;;;21.06;nan;-24402.59;5013271;28;20168;-61
2022/04/28 07:22:37;;;;;;;7.50;3.30;;;;;;;21.49;nan;-24414.25;5013379;28;20206;-60
2022/04/28 07:25:03;;;;;;;4.57;3.20;;;;;;;21.41;nan;-24412.03;5012617;28;20653;-61
2022/04/28 07:27:28;;;;;;;6.05;3.38;;;;;;;21.68;nan;-24419.53;5013293;28;20303;-60
2022/04/28 07:29:54;;;;;;;5.07;3.40;;;;;;;21.77;nan;-24422.00;5012983;28;20171;-61
2022/04/28 07:32:20;;;;;;;5.85;3.40;;;;;;;21.51;nan;-24414.81;5012796;28;20202;-61
2022/04/28 07:34:45;;;;;;;4.70;3.30;;;;;;;21.48;nan;-24413.97;5012883;28;20176;-61
2022/04/28 07:37:10;;;;;;;5.03;3.22;;;;;;;21.43;nan;-24412.59;5012452;28;20180;-61
2022/04/28 07:39:36;;;;;;;5.85;3.13;;;;;;;21.39;nan;-24411.50;5012855;28;20319;-60
2022/04/28 07:42:01;;;;;;;5.03;3.42;;;;;;;21.96;nan;-24427.28;5012749;28;20172;-61
2022/04/28 07:44:27;;;;;;;4.60;3.40;;;;;;;21.23;nan;-24407.19;5012284;28;20179;-62
2022/04/28 07:46:52;;;;;;;6.32;3.72;;;;;;;21.38;nan;-24411.22;5012618;28;20191;-60
2022/04/28 07:49:18;;;;;;;7.93;3.50;;;;;;;21.50;nan;-24414.66;5012983;28;20169;-60
2022/04/28 07:51:43;;;;;;;6.18;3.58;;;;;;;21.78;nan;-24422.28;5012324;28;20258;-60
2022/04/28 07:54:08;;;;;;;8.63;4.28;;;;;;;21.93;nan;-24426.31;5012517;28;20220;-60
2022/04/28 07:56:34;;;;;;;8.45;3.67;;;;;;;21.63;nan;-24418.13;5012416;28;20218;-61
2022/04/28 07:58:59;;;;;;;8.48;3.80;;;;;;;21.72;nan;-24420.63;5012566;28;20643;-60
2022/04/28 08:01:25;;;;;;;7.93;3.75;;;;;;;21.51;nan;-24414.94;5012343;28;20180;-61
2022/04/28 08:03:50;;;;;;;4.07;3.40;;;;;;;21.97;nan;-24427.56;5012746;28;20180;-61
2022/04/28 08:06:15;;;;;;;6.60;3.80;;;;;;;22.11;nan;-24431.28;5011953;28;20231;-61
2022/04/28 08:08:41;;;;;;;6.65;3.28;;;;;;;22.12;nan;-24431.44;5012403;28;20678;-60
2022/04/28 08:11:08;;;;;;;5.68;3.75;;;;;;;21.96;nan;-24427.16;5012366;28;20707;-61
2022/04/28 08:13:34;;;;;;;7.60;3.55;;;;;;;21.96;nan;-24427.28;5012313;28;20713;-61
2022/04/28 08:16:01;;;;;;;4.60;3.50;;;;;;;22.05;nan;-24429.50;5012203;28;20644;-61
2022/04/28 08:18:29;;;;;;;6.55;3.38;;;;;;;22.42;nan;-24439.75;5012110;28;20190;-61
2022/04/28 08:20:55;;;;;;;4.13;3.60;;;;;;;22.54;nan;-24442.91;5011741;28;20287;-61
2022/04/28 08:23:20;;;;;;;8.55;3.92;;;;;;;22.51;nan;-24442.09;5012264;28;20678;-61
2022/04/28 08:25:46;;;;;;;6.53;3.70;;;;;;;22.08;nan;-24430.31;5012238;28;20270;-61
2022/04/28 08:28:11;;;;;;;10.18;3.97;;;;;;;21.97;nan;-24427.56;5011542;28;20215;-62
2022/04/28 08:30:37;;;;;;;5.97;3.70;;;;;;;21.88;nan;-24424.91;5012377;28;20674;-61
2022/04/28 08:33:04;;;;;;;4.82;3.53;;;;;;;22.18;nan;-24433.22;5012053;28;20698;-61
2022/04/28 08:35:30;;;;;;;4.35;3.70;;;;;;;22.57;nan;-24443.88;5011701;28;20176;-61
2022/04/28 08:37:55;;;;;;;11.25;4.00;;;;;;;22.59;nan;-24444.44;5013442;28;20184;-61
2022/04/28 08:40:21;;;;;;;8.07;4.03;;;;;;;22.50;nan;-24441.94;5015958;28;20179;-62
2022/04/28 08:42:48;;;;;;;11.73;5.25;;;;;;;22.76;nan;-24449.00;5016053;28;20263;-62
2022/04/28 08:45:21;;;;;;;7.28;3.90;;;;;;;22.67;nan;-24446.50;5015823;28;20231;-61
2022/04/28 08:47:47;;;;;;;5.93;3.85;;;;;;;23.15;nan;-24459.66;5016140;28;20179;-61
2022/04/28 08:50:14;;;;;;;4.97;4.03;;;;;;;23.19;nan;-24460.75;5014347;28;20194;-60
2022/04/28 08:52:40;;;;;;;4.78;3.75;;;;;;;23.21;nan;-24461.31;5015958;28;20214;-62
2022/04/28 08:55:06;;;;;;;6.35;3.50;;;;;;;22.55;nan;-24443.19;5016276;28;20266;-61
2022/04/28 08:57:34;;;;;;;7.22;3.58;;;;;;;22.63;nan;-24445.41;5015742;28;20758;-61
2022/04/28 08:59:59;;;;;;;6.85;3.53;;;;;;;22.51;nan;-24442.22;5015856;28;20187;-62
2022/04/28 09:02:32;;;;;;;5.32;3.10;;;;;;;22.62;nan;-24445.13;5015693;28;20172;-61
2022/04/28 09:05:00;;;;;;;7.18;3.60;;;;;;;22.75;nan;-24448.88;5015120;28;20210;-61
2022/04/28 09:07:39;;;;;;;6.18;3.67;;;;;;;22.46;nan;-24440.84;5011802;28;20201;-61
2022/04/28 09:10:26;;;;;;;4.97;3.30;;;;;;;22.75;nan;-24448.88;5015003;28;20184;-62
2022/04/28 09:15:50;;;;;;;7.28;3.53;;;;;;;23.04;nan;-24456.75;5015823;28;20733;-61
2022/04/28 09:18:17;;;;;;;7.28;3.33;;;;;;;22.66;nan;-24446.25;5015287;28;20739;-61
2022/04/28 09:20:44;;;;;;;4.68;3.13;;;;;;;22.76;nan;-24449.16;5015313;28;20636;-61
2022/04/28 09:23:11;;;;;;;7.72;3.15;;;;;;;22.86;nan;-24451.91;5015355;28;20566;-61
2022/04/28 09:25:38;;;;;;;5.90;3.42;;;;;;;22.04;nan;-24429.34;5015162;28;20687;-61
2022/04/28 09:28:04;;;;;;;6.53;3.60;;;;;;;22.15;nan;-24432.41;5014343;28;20219;-62
2022/04/28 09:30:49;;;;;;;4.75;3.55;;;;;;;21.92;nan;-24426.03;5014846;28;20259;-62
2022/04/28 09:33:15;;;;;;;6.53;3.42;;;;;;;22.18;nan;-24433.22;5014517;28;20194;-62
2022/04/28 09:35:49;;;;;;;5.32;3.00;;;;;;;22.53;nan;-24442.63;5014115;28;20180;-62
2022/04/28 09:38:15;;;;;;;6.10;3.05;;;;;;;22.20;nan;-24433.66;5014514;28;20180;-62
2022/04/28 09:43:30;;;;;;;8.07;2.88;;;;;;;22.14;nan;-24432.00;5014684;28;20188;-62
2022/04/28 09:45:56;;;;;;;5.45;2.92;;;;;;;22.15;nan;-24432.41;5014454;28;20211;-61
2022/04/28 09:48:24;;;;;;;6.88;3.42;;;;;;;22.03;nan;-24429.09;5013878;28;20652;-62
2022/04/28 09:50:50;;;;;;;5.35;2.90;;;;;;;22.77;nan;-24449.28;5014315;28;20672;-62
2022/04/28 09:53:16;;;;;;;4.38;2.85;;;;;;;22.83;nan;-24450.94;5013883;28;20570;-61
2022/04/28 09:55:42;;;;;;;6.03;2.65;;;;;;;22.68;nan;-24446.78;5014330;28;20176;-61
2022/04/28 09:58:11;;;;;;;4.63;3.13;;;;;;;22.30;nan;-24436.56;5014298;28;20935;-60
2022/04/28 10:00:36;;;;;;;5.97;2.90;;;;;;;22.24;nan;-24434.88;5012801;28;20176;-61
2022/04/28 10:03:05;;;;;;;5.82;3.00;;;;;;;22.18;nan;-24433.09;5014073;28;20175;-60
2022/04/28 10:05:31;;;;;;;4.13;2.85;;;;;;;21.89;nan;-24425.34;5014561;28;20227;-60
2022/04/28 10:07:57;;;;;;;5.95;2.90;;;;;;;22.08;nan;-24430.31;5014769;28;20176;-60
2022/04/28 10:10:26;;;;;;;4.80;2.85;;;;;;;22.52;nan;-24442.50;5014980;28;20195;-60
2022/04/28 10:12:54;;;;;;;3.67;2.70;;;;;;;21.71;nan;-24420.34;5014440;28;20263;-61
2022/04/28 10:15:21;;;;;;;3.80;2.95;;;;;;;21.91;nan;-24425.91;5014166;28;20658;-61
2022/04/28 10:17:54;;;;;;;5.38;3.15;;;;;;;22.20;nan;-24433.78;5014366;28;20180;-60
2022/04/28 10:20:33;;;;;;;5.03;3.70;;;;;;;22.03;nan;-24429.22;5014428;28;20538;-61
2022/04/28 10:23:01;;;;;;;4.93;2.85;;;;;;;22.02;nan;-24428.81;5014069;28;20632;-61
2022/04/28 10:34:17;;;;;;;4.90;3.10;;;;;;;21.89;nan;-24425.34;5014110;28;20175;-60
2022/04/28 10:36:58;;;;;;;6.03;3.05;;;;;;;22.25;nan;-24435.16;5014087;28;20167;-60
2022/04/28 10:39:41;;;;;;;4.35;3.20;;;;;;;22.55;nan;-24443.19;5013840;28;20786;-61
2022/04/28 10:42:25;;;;;;;8.75;2.75;;;;;;;22.78;nan;-24449.69;5013959;28;20175;-60
2022/04/28 10:44:55;;;;;;;8.20;3.17;;;;;;;22.75;nan;-24448.88;5014012;28;20230;-61
2022/04/28 10:47:22;;;;;;;5.15;3.00;;;;;;;22.48;nan;-24441.53;5013808;28;20203;-61
2022/04/28 10:49:54;;;;;;;7.38;2.88;;;;;;;22.11;nan;-24431.16;5013369;28;20568;-62
2022/04/28 10:52:22;;;;;;;5.10;2.63;;;;;;;21.33;nan;-24409.97;5013699;28;20258;-60
2022/04/28 10:54:51;;;;;;;4.65;2.90;;;;;;;21.25;nan;-24407.59;5013499;28;20703;-60
2022/04/28 10:57:17;;;;;;;4.65;3.00;;;;;;;21.14;nan;-24404.84;5012963;28;20196;-61
2022/04/28 10:59:48;;;;;;;3.53;2.78;;;;;;;21.29;nan;-24408.72;5013105;28;20532;-61
2022/04/28 11:02:14;;;;;;;3.88;3.03;;;;;;;22.02;nan;-24428.94;5013194;28;20247;-60
2022/04/28 11:04:44;;;;;;;6.80;3.20;;;;;;;22.02;nan;-24428.81;5013426;28;20262;-60
2022/04/28 11:07:19;;;;;;;5.10;3.35;;;;;;;22.41;nan;-24439.47;5013222;28;20615;-60
2022/04/28 11:09:55;;;;;;;5.35;2.53;;;;;;;22.40;nan;-24439.19;5012870;28;20183;-61
2022/04/28 11:12:22;;;;;;;5.15;3.38;;;;;;;22.34;nan;-24437.53;5013267;28;20172;-60
2022/04/28 11:14:48;;;;;;;3.75;2.80;;;;;;;22.90;nan;-24453.00;5013234;28;20559;-61
2022/04/28 11:17:16;;;;;;;4.65;3.10;;;;;;;22.91;nan;-24453.16;5013308;28;20169;-61
2022/04/28 11:19:44;;;;;;;4.13;3.05;;;;;;;22.58;nan;-24444.16;5013219;28;20242;-61
2022/04/28 11:22:13;;;;;;;6.93;2.72;;;;;;;23.58;nan;-24471.38;5013280;28;20176;-60
2022/04/28 11:24:45;;;;;;;4.68;2.40;;;;;;;23.81;nan;-24477.59;5008765;28;20611;-60
2022/04/28 11:27:18;;;;;;;5.75;2.42;;;;;;;24.03;nan;-24483.81;5011525;28;20253;-61
2022/04/28 11:29:44;;;;;;;5.07;2.78;;;;;;;24.28;nan;-24490.44;5012671;28;20253;-62
2022/04/28 11:32:09;;;;;;;3.85;2.42;;;;;;;24.46;nan;-24495.41;5013090;28;20172;-61
2022/04/28 11:34:35;;;;;;;7.13;2.83;;;;;;;23.78;nan;-24476.91;5012472;28;20619;-61
2022/04/28 11:37:16;;;;;;;5.60;2.70;;;;;;;23.75;nan;-24476.22;5012515;28;20187;-61
2022/04/28 11:39:45;;;;;;;6.18;3.00;;;;;;;23.50;nan;-24469.31;5012663;28;20178;-61
2022/04/28 11:42:12;;;;;;;5.05;2.67;;;;;;;23.39;nan;-24466.13;5012628;28;20562;-61
2022/04/28 11:44:52;;;;;;;5.28;2.58;;;;;;;23.25;nan;-24462.41;5012522;28;20208;-60
2022/04/28 11:47:18;;;;;;;3.53;2.58;;;;;;;23.35;nan;-24465.19;5012284;28;20208;-61
2022/04/28 11:49:45;;;;;;;4.18;2.80;;;;;;;23.57;nan;-24471.13;5012668;28;20172;-61
2022/04/28 11:52:29;;;;;;;3.92;2.80;;;;;;;24.31;nan;-24491.41;5012647;28;20176;-61
2022/04/28 11:54:57;;;;;;;6.30;3.13;;;;;;;25.04;nan;-24511.25;5012169;28;20228;-61
2022/04/28 11:57:23;;;;;;;5.53;3.15;;;;;;;25.18;nan;-24514.94;5012428;28;20260;-61
2022/04/28 11:59:49;;;;;;;7.28;3.20;;;;;;;25.46;nan;-24522.78;5012514;28;20247;-61
2022/04/28 12:02:29;;;;;;;3.67;3.00;;;;;;;24.59;nan;-24499.13;5012333;28;20572;-61
2022/04/28 12:04:55;;;;;;;5.45;2.92;;;;;;;24.90;nan;-24507.53;5012167;28;20175;-60
2022/04/28 12:07:23;;;;;;;5.60;3.17;;;;;;;23.90;nan;-24480.22;5012289;28;20202;-60
2022/04/28 12:15:22;;;;;;;5.28;2.83;;;;;;;23.41;nan;-24466.81;5012283;28;20238;-61
2022/04/28 12:20:37;;;;;;;6.05;2.90;;;;;;;23.42;nan;-24466.97;5012213;28;20298;-61